createdAt,value
2022-08-12T00:00:52.226Z,23.07
2022-08-12T00:02:03.127Z,22.98
2022-08-12T00:02:52.272Z,23.01
2022-08-12T00:03:52.234Z,23.01
2022-08-12T00:04:52.247Z,23.01
2022-08-12T00:06:01.808Z,23.07
2022-08-12T00:06:52.244Z,23.10
2022-08-12T00:07:52.242Z,22.97
2022-08-12T00:08:52.258Z,23.05
2022-08-12T00:09:52.250Z,23.00
2022-08-12T00:10:52.253Z,22.95
2022-08-12T00:11:52.256Z,22.91
2022-08-12T00:12:52.256Z,22.97
2022-08-12T00:13:52.258Z,22.91
2022-08-12T00:14:52.265Z,22.88
2022-08-12T00:15:52.270Z,22.88
2022-08-12T00:16:52.268Z,22.92
2022-08-12T00:17:52.270Z,22.92
2022-08-12T00:18:52.269Z,22.94
2022-08-12T00:19:52.279Z,22.92
2022-08-12T00:20:52.272Z,22.91
2022-08-12T00:21:52.279Z,22.90
2022-08-12T00:22:59.291Z,22.91
2022-08-12T00:23:52.290Z,22.88
2022-08-12T00:24:52.287Z,22.83
2022-08-12T00:26:21.719Z,22.82
2022-08-12T00:26:52.293Z,22.79
2022-08-12T00:27:52.297Z,22.80
2022-08-12T00:28:52.297Z,22.82
2022-08-12T00:29:52.302Z,22.73
2022-08-12T00:30:52.305Z,22.72
2022-08-12T00:31:52.307Z,22.76
2022-08-12T00:32:56.759Z,22.72
2022-08-12T00:33:52.899Z,22.76
2022-08-12T00:34:52.309Z,22.77
2022-08-12T00:35:52.315Z,22.73
2022-08-12T00:36:52.317Z,22.72
2022-08-12T00:37:52.323Z,22.64
2022-08-12T00:38:52.323Z,22.62
2022-08-12T00:39:52.369Z,22.61
2022-08-12T00:40:52.323Z,22.54
2022-08-12T00:41:52.334Z,22.62
2022-08-12T00:42:52.335Z,22.61
2022-08-12T00:43:56.108Z,22.55
2022-08-12T00:44:52.335Z,22.60
2022-08-12T00:45:52.340Z,22.54
2022-08-12T00:46:52.344Z,22.54
2022-08-12T00:47:52.347Z,22.55
2022-08-12T00:48:52.342Z,22.55
2022-08-12T00:49:52.351Z,22.57
2022-08-12T00:50:52.352Z,22.49
2022-08-12T00:51:52.355Z,22.54
2022-08-12T00:52:52.356Z,22.54
2022-08-12T00:53:52.359Z,22.52
2022-08-12T00:54:52.368Z,22.45
2022-08-12T00:55:52.364Z,22.35
2022-08-12T00:56:52.365Z,22.37
2022-08-12T00:57:52.370Z,22.36
2022-08-12T00:58:52.370Z,22.35
2022-08-12T00:59:52.374Z,22.33
2022-08-12T01:00:52.438Z,22.28
2022-08-12T01:02:10.675Z,22.33
2022-08-12T01:02:52.383Z,22.35
2022-08-12T01:03:52.380Z,22.35
2022-08-12T01:04:52.382Z,22.25
2022-08-12T01:05:52.385Z,22.27
2022-08-12T01:06:53.849Z,22.28
2022-08-12T01:07:52.390Z,22.21
2022-08-12T01:08:52.393Z,22.20
2022-08-12T01:09:52.397Z,22.21
2022-08-12T01:10:52.400Z,22.20
2022-08-12T01:11:52.399Z,22.17
2022-08-12T01:12:52.402Z,22.02
2022-08-12T01:13:52.404Z,22.09
2022-08-12T01:14:52.404Z,22.05
2022-08-12T01:15:52.411Z,22.06
2022-08-12T01:16:52.412Z,22.03
2022-08-12T01:17:52.419Z,22.12
2022-08-12T01:18:52.424Z,22.05
2022-08-12T01:19:52.416Z,22.12
2022-08-12T01:20:52.421Z,22.03
2022-08-12T01:21:52.422Z,22.09
2022-08-12T01:22:52.424Z,22.03
2022-08-12T01:23:52.424Z,22.00
2022-08-12T01:24:52.430Z,22.05
2022-08-12T01:25:56.250Z,22.09
2022-08-12T01:26:52.433Z,22.03
2022-08-12T01:27:52.437Z,21.96
2022-08-12T01:28:52.438Z,21.99
2022-08-12T01:29:52.439Z,22.02
2022-08-12T01:30:52.443Z,21.96
2022-08-12T01:31:52.445Z,22.02
2022-08-12T01:32:52.446Z,22.02
2022-08-12T01:33:52.449Z,22.03
2022-08-12T01:34:52.450Z,21.96
2022-08-12T01:36:07.806Z,21.91
2022-08-12T01:36:52.459Z,21.90
2022-08-12T01:37:52.459Z,21.88
2022-08-12T01:38:52.459Z,21.94
2022-08-12T01:40:31.484Z,21.94
2022-08-12T01:40:52.516Z,21.92
2022-08-12T01:41:53.742Z,21.90
2022-08-12T01:42:52.472Z,21.98
2022-08-12T01:43:52.470Z,21.96
2022-08-12T01:44:52.477Z,21.92
2022-08-12T01:45:57.474Z,21.88
2022-08-12T01:46:52.475Z,21.92
2022-08-12T01:47:52.475Z,21.98
2022-08-12T01:48:52.484Z,22.00
2022-08-12T01:49:52.482Z,21.90
2022-08-12T01:50:52.488Z,21.86
2022-08-12T01:52:21.732Z,21.84
2022-08-12T01:52:52.491Z,21.90
2022-08-12T01:53:52.494Z,21.83
2022-08-12T01:54:52.493Z,21.92
2022-08-12T01:55:52.496Z,21.83
2022-08-12T01:56:52.494Z,21.83
2022-08-12T01:57:57.769Z,21.86
2022-08-12T01:58:52.501Z,21.77
2022-08-12T01:59:52.500Z,21.83
2022-08-12T02:00:55.568Z,21.79
2022-08-12T02:01:52.596Z,21.75
2022-08-12T02:02:52.507Z,21.74
2022-08-12T02:03:52.511Z,21.62
2022-08-12T02:04:52.512Z,21.53
2022-08-12T02:05:52.522Z,21.62
2022-08-12T02:06:52.516Z,21.58
2022-08-12T02:07:52.519Z,21.53
2022-08-12T02:08:52.535Z,21.52
2022-08-12T02:09:52.522Z,21.64
2022-08-12T02:10:52.525Z,21.61
2022-08-12T02:11:53.813Z,21.54
2022-08-12T02:12:52.529Z,21.50
2022-08-12T02:13:52.534Z,21.62
2022-08-12T02:14:52.531Z,21.50
2022-08-12T02:15:52.533Z,21.59
2022-08-12T02:16:52.535Z,21.53
2022-08-12T02:17:55.497Z,21.50
2022-08-12T02:18:52.539Z,21.61
2022-08-12T02:19:52.542Z,21.61
2022-08-12T02:20:53.002Z,21.54
2022-08-12T02:21:52.551Z,21.61
2022-08-12T02:22:52.550Z,21.53
2022-08-12T02:23:52.548Z,21.50
2022-08-12T02:24:52.550Z,21.52
2022-08-12T02:25:52.557Z,21.59
2022-08-12T02:26:52.557Z,21.54
2022-08-12T02:27:52.558Z,21.53
2022-08-12T02:28:52.558Z,21.49
2022-08-12T02:29:52.560Z,21.54
2022-08-12T02:30:52.565Z,21.49
2022-08-12T02:31:52.570Z,21.50
2022-08-12T02:32:52.567Z,21.53
2022-08-12T02:33:52.572Z,21.52
2022-08-12T02:34:52.568Z,21.49
2022-08-12T02:35:52.577Z,21.44
2022-08-12T02:36:52.573Z,21.42
2022-08-12T02:37:52.573Z,21.40
2022-08-12T02:38:52.576Z,21.40
2022-08-12T02:39:52.615Z,21.40
2022-08-12T02:40:52.576Z,21.35
2022-08-12T02:41:52.584Z,21.31
2022-08-12T02:42:52.583Z,21.38
2022-08-12T02:43:52.587Z,21.35
2022-08-12T02:44:52.585Z,21.29
2022-08-12T02:45:52.592Z,21.34
2022-08-12T02:46:52.592Z,21.25
2022-08-12T02:47:58.649Z,21.29
2022-08-12T02:48:52.598Z,21.27
2022-08-12T02:49:52.597Z,21.28
2022-08-12T02:50:52.604Z,21.27
2022-08-12T02:51:52.606Z,21.35
2022-08-12T02:52:52.606Z,21.35
2022-08-12T02:54:04.753Z,21.27
2022-08-12T02:54:52.611Z,21.34
2022-08-12T02:55:52.609Z,21.38
2022-08-12T02:56:52.611Z,21.28
2022-08-12T02:57:52.615Z,21.24
2022-08-12T02:58:52.616Z,21.24
2022-08-12T02:59:52.617Z,21.24
2022-08-12T03:00:52.670Z,21.28
2022-08-12T03:01:52.619Z,21.28
2022-08-12T03:02:52.614Z,21.25
2022-08-12T03:03:52.622Z,21.29
2022-08-12T03:04:52.677Z,21.32
2022-08-12T03:05:52.711Z,21.16
2022-08-12T03:06:52.632Z,21.19
2022-08-12T03:07:59.639Z,21.27
2022-08-12T03:08:53.717Z,21.25
2022-08-12T03:10:03.783Z,21.21
2022-08-12T03:10:52.635Z,21.19
2022-08-12T03:11:52.642Z,21.21
2022-08-12T03:12:52.853Z,21.19
2022-08-12T03:13:52.643Z,21.10
2022-08-12T03:14:52.643Z,21.17
2022-08-12T03:15:52.644Z,21.10
2022-08-12T03:16:52.655Z,21.14
2022-08-12T03:18:26.004Z,21.12
2022-08-12T03:18:52.648Z,21.06
2022-08-12T03:20:09.455Z,21.09
2022-08-12T03:20:52.657Z,21.14
2022-08-12T03:22:08.762Z,21.09
2022-08-12T03:22:52.656Z,21.06
2022-08-12T03:23:52.658Z,21.01
2022-08-12T03:24:52.664Z,21.03
2022-08-12T03:25:52.668Z,21.04
2022-08-12T03:26:52.660Z,21.06
2022-08-12T03:27:52.675Z,21.04
2022-08-12T03:28:52.664Z,21.07
2022-08-12T03:29:52.672Z,21.10
2022-08-12T03:30:56.647Z,21.10
2022-08-12T03:31:52.672Z,21.12
2022-08-12T03:32:52.849Z,20.99
2022-08-12T03:34:01.605Z,21.03
2022-08-12T03:34:52.675Z,21.09
2022-08-12T03:35:52.677Z,21.09
2022-08-12T03:36:52.682Z,21.01
2022-08-12T03:37:52.687Z,20.99
2022-08-12T03:38:52.688Z,21.01
2022-08-12T03:39:52.742Z,21.09
2022-08-12T03:40:52.687Z,21.06
2022-08-12T03:41:52.693Z,21.06
2022-08-12T03:42:52.698Z,21.01
2022-08-12T03:43:52.692Z,21.09
2022-08-12T03:44:52.694Z,20.97
2022-08-12T03:45:53.022Z,20.98
2022-08-12T03:46:52.700Z,20.99
2022-08-12T03:47:52.700Z,21.01
2022-08-12T03:48:52.702Z,21.01
2022-08-12T03:49:52.705Z,20.95
2022-08-12T03:50:52.701Z,21.04
2022-08-12T03:51:52.705Z,21.01
2022-08-12T03:52:52.705Z,20.95
2022-08-12T03:53:52.708Z,20.91
2022-08-12T03:54:52.711Z,20.94
2022-08-12T03:55:52.715Z,20.94
2022-08-12T03:56:52.721Z,20.97
2022-08-12T03:57:52.712Z,20.87
2022-08-12T03:58:52.713Z,20.97
2022-08-12T03:59:52.724Z,20.97
2022-08-12T04:00:52.816Z,20.97
2022-08-12T04:01:52.723Z,20.87
2022-08-12T04:02:52.726Z,20.91
2022-08-12T04:03:52.731Z,20.94
2022-08-12T04:04:52.782Z,20.97
2022-08-12T04:05:55.526Z,20.88
2022-08-12T04:06:52.727Z,20.87
2022-08-12T04:07:57.868Z,20.89
2022-08-12T04:08:52.731Z,20.92
2022-08-12T04:09:52.736Z,20.92
2022-08-12T04:10:52.736Z,20.91
2022-08-12T04:11:52.736Z,20.87
2022-08-12T04:12:52.740Z,20.84
2022-08-12T04:13:52.740Z,20.88
2022-08-12T04:14:52.744Z,20.92
2022-08-12T04:15:52.747Z,20.94
2022-08-12T04:16:52.742Z,20.87
2022-08-12T04:18:06.309Z,20.92
2022-08-12T04:18:52.745Z,20.88
2022-08-12T04:19:52.750Z,20.89
2022-08-12T04:20:52.751Z,20.88
2022-08-12T04:22:01.391Z,20.89
2022-08-12T04:22:52.756Z,20.85
2022-08-12T04:23:52.762Z,20.91
2022-08-12T04:24:52.759Z,20.92
2022-08-12T04:25:52.761Z,20.89
2022-08-12T04:26:52.764Z,20.88
2022-08-12T04:27:52.760Z,20.91
2022-08-12T04:28:52.762Z,20.91
2022-08-12T04:30:29.654Z,20.94
2022-08-12T04:30:52.768Z,20.87
2022-08-12T04:31:52.768Z,20.92
2022-08-12T04:32:54.115Z,20.80
2022-08-12T04:33:52.776Z,20.88
2022-08-12T04:34:52.787Z,20.88
2022-08-12T04:35:52.777Z,20.84
2022-08-12T04:36:52.777Z,20.94
2022-08-12T04:37:59.480Z,20.88
2022-08-12T04:38:55.426Z,20.88
2022-08-12T04:39:52.833Z,20.92
2022-08-12T04:40:52.784Z,20.91
2022-08-12T04:41:58.506Z,20.85
2022-08-12T04:42:52.785Z,20.95
2022-08-12T04:43:59.790Z,20.91
2022-08-12T04:44:52.788Z,20.94
2022-08-12T04:45:52.792Z,20.92
2022-08-12T04:46:52.790Z,20.95
2022-08-12T04:47:52.829Z,20.97
2022-08-12T04:48:52.813Z,20.97
2022-08-12T04:49:52.812Z,21.03
2022-08-12T04:50:52.797Z,21.01
2022-08-12T04:51:57.627Z,21.01
2022-08-12T04:52:52.801Z,21.01
2022-08-12T04:53:52.801Z,20.99
2022-08-12T04:54:52.802Z,21.06
2022-08-12T04:55:52.807Z,21.06
2022-08-12T04:57:03.100Z,21.04
2022-08-12T04:57:52.807Z,20.99
2022-08-12T04:58:52.868Z,21.06
2022-08-12T04:59:52.817Z,21.09
2022-08-12T05:00:52.811Z,21.13
2022-08-12T05:01:52.873Z,21.10
2022-08-12T05:02:52.871Z,21.10
2022-08-12T05:03:52.819Z,21.07
2022-08-12T05:04:52.891Z,21.17
2022-08-12T05:05:52.822Z,21.09
2022-08-12T05:06:52.870Z,21.03
2022-08-12T05:07:54.000Z,21.10
2022-08-12T05:08:52.828Z,21.14
2022-08-12T05:10:02.048Z,21.10
2022-08-12T05:10:52.827Z,21.10
2022-08-12T05:11:53.910Z,21.12
2022-08-12T05:12:52.843Z,21.17
2022-08-12T05:13:52.830Z,21.21
2022-08-12T05:14:52.837Z,21.22
2022-08-12T05:16:04.373Z,21.27
2022-08-12T05:16:52.841Z,21.28
2022-08-12T05:17:52.836Z,21.31
2022-08-12T05:18:52.839Z,21.25
2022-08-12T05:19:52.838Z,21.32
2022-08-12T05:20:52.842Z,21.40
2022-08-12T05:21:52.839Z,21.29
2022-08-12T05:22:53.293Z,21.43
2022-08-12T05:23:52.849Z,21.43
2022-08-12T05:24:52.872Z,21.38
2022-08-12T05:25:52.854Z,21.40
2022-08-12T05:26:52.862Z,21.43
2022-08-12T05:27:58.152Z,21.43
2022-08-12T05:28:52.857Z,21.46
2022-08-12T05:30:06.683Z,21.65
2022-08-12T05:30:52.857Z,21.59
2022-08-12T05:31:52.859Z,21.61
2022-08-12T05:32:53.791Z,21.65
2022-08-12T05:33:52.862Z,21.62
2022-08-12T05:34:52.867Z,21.74
2022-08-12T05:35:52.867Z,21.72
2022-08-12T05:36:52.866Z,21.80
2022-08-12T05:37:52.873Z,21.86
2022-08-12T05:38:52.873Z,21.90
2022-08-12T05:39:52.917Z,21.83
2022-08-12T05:40:52.876Z,21.91
2022-08-12T05:41:52.875Z,21.98
2022-08-12T05:42:52.877Z,21.94
2022-08-12T05:43:52.875Z,21.90
2022-08-12T05:44:52.883Z,22.00
2022-08-12T05:45:52.878Z,21.98
2022-08-12T05:46:52.886Z,21.99
2022-08-12T05:47:54.381Z,22.09
2022-08-12T05:48:52.891Z,22.03
2022-08-12T05:49:52.889Z,22.07
2022-08-12T05:50:52.891Z,22.15
2022-08-12T05:51:52.891Z,22.18
2022-08-12T05:52:53.019Z,22.20
2022-08-12T05:53:52.898Z,22.30
2022-08-12T05:54:57.540Z,22.36
2022-08-12T05:55:52.902Z,22.27
2022-08-12T05:56:52.903Z,22.33
2022-08-12T05:57:52.901Z,22.36
2022-08-12T05:58:52.905Z,22.37
2022-08-12T05:59:52.911Z,22.36
2022-08-12T06:00:52.908Z,22.54
2022-08-12T06:02:09.956Z,22.49
2022-08-12T06:02:52.945Z,22.54
2022-08-12T06:03:52.911Z,22.58
2022-08-12T06:04:52.972Z,22.57
2022-08-12T06:05:55.216Z,22.64
2022-08-12T06:06:52.926Z,22.70
2022-08-12T06:08:01.857Z,22.75
2022-08-12T06:08:52.921Z,22.79
2022-08-12T06:09:52.929Z,22.86
2022-08-12T06:10:52.922Z,22.92
2022-08-12T06:12:05.780Z,22.90
2022-08-12T06:12:52.927Z,23.02
2022-08-12T06:13:54.445Z,23.02
2022-08-12T06:14:52.930Z,23.12
2022-08-12T06:15:52.932Z,23.12
2022-08-12T06:16:52.944Z,23.22
2022-08-12T06:17:52.939Z,23.17
2022-08-12T06:18:52.944Z,23.16
2022-08-12T06:20:22.722Z,23.23
2022-08-12T06:20:53.867Z,23.32
2022-08-12T06:21:52.950Z,23.33
2022-08-12T06:22:54.613Z,23.40
2022-08-12T06:23:52.952Z,23.50
2022-08-12T06:24:52.993Z,23.55
2022-08-12T06:25:52.955Z,23.60
2022-08-12T06:26:52.956Z,23.68
2022-08-12T06:28:07.875Z,23.68
2022-08-12T06:28:52.955Z,23.70
2022-08-12T06:30:09.104Z,23.72
2022-08-12T06:31:52.965Z,23.85
2022-08-12T06:33:04.168Z,23.88
2022-08-12T06:33:57.616Z,23.93
2022-08-12T06:35:27.249Z,23.94
2022-08-12T06:35:57.765Z,23.95
2022-08-12T06:36:52.972Z,24.12
2022-08-12T06:37:56.571Z,24.15
2022-08-12T06:38:52.981Z,24.10
2022-08-12T06:39:53.042Z,24.24
2022-08-12T06:40:52.985Z,24.25
2022-08-12T06:42:28.515Z,24.27
2022-08-12T06:42:52.987Z,24.34
2022-08-12T06:44:05.504Z,24.42
2022-08-12T06:44:52.996Z,24.47
2022-08-12T06:45:52.989Z,24.57
2022-08-12T06:46:52.996Z,24.65
2022-08-12T06:47:52.997Z,24.80
2022-08-12T06:48:53.000Z,24.81
2022-08-12T06:49:53.003Z,24.99
2022-08-12T06:50:53.004Z,25.13
2022-08-12T06:51:56.245Z,25.21
2022-08-12T06:52:53.008Z,25.28
2022-08-12T06:53:53.010Z,25.55
2022-08-12T06:54:53.015Z,25.57
2022-08-12T06:55:58.065Z,25.73
2022-08-12T06:58:05.516Z,25.79
2022-08-12T06:58:06.987Z,25.91
2022-08-12T06:58:53.025Z,25.97
2022-08-12T06:59:53.020Z,26.09
2022-08-12T07:00:53.076Z,26.10
2022-08-12T07:01:53.028Z,26.15
2022-08-12T07:02:53.033Z,26.23
2022-08-12T07:03:53.037Z,26.26
2022-08-12T07:04:53.085Z,26.35
2022-08-12T07:05:53.043Z,26.50
2022-08-12T07:06:53.039Z,26.60
2022-08-12T07:07:53.039Z,26.63
2022-08-12T07:08:53.047Z,26.65
2022-08-12T07:10:01.370Z,26.77
2022-08-12T07:10:53.057Z,26.89
2022-08-12T07:11:53.050Z,27.02
2022-08-12T07:12:53.058Z,27.17
2022-08-12T07:14:12.746Z,27.25
2022-08-12T07:14:53.061Z,27.39
2022-08-12T07:15:53.064Z,27.55
2022-08-12T07:16:53.071Z,27.62
2022-08-12T07:17:53.065Z,27.78
2022-08-12T07:18:53.078Z,27.94
2022-08-12T07:19:53.076Z,28.04
2022-08-12T07:20:53.556Z,28.29
2022-08-12T07:22:00.141Z,28.43
2022-08-12T07:22:53.089Z,28.78
2022-08-12T07:23:53.084Z,29.21
2022-08-12T07:24:53.090Z,29.70
2022-08-12T07:25:57.885Z,30.20
2022-08-12T07:26:53.093Z,30.91
2022-08-12T07:27:53.096Z,31.47
2022-08-12T07:28:53.105Z,31.99
2022-08-12T07:30:03.961Z,32.77
2022-08-12T07:30:53.109Z,33.44
2022-08-12T07:31:53.108Z,34.10
2022-08-12T07:32:53.117Z,34.70
2022-08-12T07:33:53.120Z,35.33
2022-08-12T07:34:53.123Z,35.96
2022-08-12T07:35:53.126Z,36.49
2022-08-12T07:36:53.133Z,36.73
2022-08-12T07:37:53.138Z,37.09
2022-08-12T07:38:53.144Z,37.47
2022-08-12T07:40:00.348Z,37.34
2022-08-12T07:40:53.148Z,37.59
2022-08-12T07:41:53.151Z,37.81
2022-08-12T07:42:53.158Z,37.70
2022-08-12T07:43:53.160Z,37.75
2022-08-12T07:44:53.171Z,36.66
2022-08-12T07:45:53.174Z,35.70
2022-08-12T07:46:53.185Z,35.02
2022-08-12T07:47:53.182Z,34.46
2022-08-12T07:48:53.190Z,33.97
2022-08-12T07:50:04.721Z,33.73
2022-08-12T07:50:53.206Z,33.26
2022-08-12T07:51:53.213Z,33.09
2022-08-12T07:52:53.217Z,32.84
2022-08-12T07:54:00.726Z,32.43
2022-08-12T07:54:53.226Z,32.13
2022-08-12T07:55:53.237Z,31.93
2022-08-12T07:56:53.237Z,31.76
2022-08-12T07:57:53.243Z,31.65
2022-08-12T07:58:53.248Z,31.62
2022-08-12T07:59:55.626Z,31.51
2022-08-12T08:00:53.260Z,31.54
2022-08-12T08:01:53.398Z,31.44
2022-08-12T08:02:53.276Z,31.31
2022-08-12T08:03:53.286Z,31.38
2022-08-12T08:04:53.328Z,31.38
2022-08-12T08:05:53.288Z,31.35
2022-08-12T08:06:53.295Z,31.38
2022-08-12T08:07:53.332Z,31.38
2022-08-12T08:08:53.307Z,31.36
2022-08-12T08:09:58.340Z,31.41
2022-08-12T08:10:53.322Z,31.36
2022-08-12T08:11:53.326Z,31.36
2022-08-12T08:12:53.331Z,31.23
2022-08-12T08:13:53.336Z,31.20
2022-08-12T08:14:53.339Z,31.13
2022-08-12T08:16:03.083Z,31.13
2022-08-12T08:16:53.352Z,31.13
2022-08-12T08:17:53.361Z,31.19
2022-08-12T08:18:53.367Z,31.12
2022-08-12T08:20:03.961Z,31.14
2022-08-12T08:20:53.380Z,31.23
2022-08-12T08:21:53.386Z,31.25
2022-08-12T08:22:53.657Z,31.25
2022-08-12T08:23:56.339Z,31.31
2022-08-12T08:24:53.397Z,31.36
2022-08-12T08:25:53.409Z,31.35
2022-08-12T08:26:53.411Z,31.38
2022-08-12T08:27:53.419Z,31.38
2022-08-12T08:28:53.422Z,31.29
2022-08-12T08:29:53.422Z,31.35
2022-08-12T08:30:53.436Z,31.34
2022-08-12T08:31:53.439Z,31.31
2022-08-12T08:32:53.440Z,31.35
2022-08-12T08:34:05.302Z,31.31
2022-08-12T08:34:54.401Z,31.35
2022-08-12T08:35:54.285Z,31.38
2022-08-12T08:36:53.464Z,31.48
2022-08-12T08:37:53.477Z,31.48
2022-08-12T08:38:58.258Z,31.56
2022-08-12T08:39:53.536Z,31.65
2022-08-12T08:40:53.493Z,31.63
2022-08-12T08:42:15.278Z,31.63
2022-08-12T08:42:53.503Z,31.65
2022-08-12T08:43:53.507Z,31.78
2022-08-12T08:44:58.155Z,31.85
2022-08-12T08:45:53.531Z,31.84
2022-08-12T08:46:53.526Z,32.01
2022-08-12T08:47:56.188Z,32.04
2022-08-12T08:48:56.447Z,32.07
2022-08-12T08:49:53.546Z,32.13
2022-08-12T08:50:56.690Z,32.13
2022-08-12T08:51:53.555Z,32.14
2022-08-12T08:52:53.566Z,32.28
2022-08-12T08:53:53.566Z,32.29
2022-08-12T08:54:53.574Z,32.29
2022-08-12T08:56:04.514Z,32.35
2022-08-12T08:56:53.582Z,32.57
2022-08-12T08:57:53.595Z,32.55
2022-08-12T08:58:53.600Z,32.57
2022-08-12T08:59:53.607Z,32.51
2022-08-12T09:00:53.612Z,32.51
2022-08-12T09:01:53.691Z,32.57
2022-08-12T09:02:59.472Z,32.60
2022-08-12T09:05:09.771Z,32.60
2022-08-12T09:05:12.013Z,32.67
2022-08-12T09:06:02.381Z,32.65
2022-08-12T09:06:55.985Z,32.66
2022-08-12T09:08:09.147Z,32.65
2022-08-12T09:08:53.658Z,32.79
2022-08-12T09:10:59.172Z,32.87
2022-08-12T09:12:11.426Z,32.88
2022-08-12T09:12:54.059Z,32.96
2022-08-12T09:14:12.582Z,33.06
2022-08-12T09:14:53.701Z,32.96
2022-08-12T09:15:57.533Z,32.99
2022-08-12T09:16:53.714Z,33.15
2022-08-12T09:17:53.902Z,33.04
2022-08-12T09:18:53.724Z,32.99
2022-08-12T09:19:58.026Z,33.06
2022-08-12T09:20:53.738Z,33.19
2022-08-12T09:21:54.366Z,33.26
2022-08-12T09:22:54.181Z,33.42
2022-08-12T09:23:58.600Z,33.39
2022-08-12T09:24:53.789Z,33.53
2022-08-12T09:25:53.779Z,33.41
2022-08-12T09:26:53.785Z,33.49
2022-08-12T09:28:03.781Z,33.49
2022-08-12T09:28:53.951Z,33.61
2022-08-12T09:30:10.346Z,33.56
2022-08-12T09:30:53.807Z,33.65
2022-08-12T09:32:03.447Z,33.75
2022-08-12T09:33:05.080Z,33.63
2022-08-12T09:34:25.860Z,33.76
2022-08-12T09:34:53.838Z,33.72
2022-08-12T09:36:04.219Z,33.56
2022-08-12T09:37:01.144Z,33.41
2022-08-12T09:37:57.658Z,33.38
2022-08-12T09:38:58.451Z,33.49
2022-08-12T09:40:04.342Z,33.56
2022-08-12T09:41:01.651Z,33.56
2022-08-12T09:42:33.079Z,33.68
2022-08-12T09:43:11.662Z,33.75
2022-08-12T09:44:01.034Z,33.86
2022-08-12T09:45:17.598Z,33.98
2022-08-12T09:46:14.344Z,34.09
2022-08-12T09:46:53.963Z,34.24
2022-08-12T09:47:56.943Z,34.32
2022-08-12T09:48:55.815Z,34.44
2022-08-12T09:49:57.958Z,34.35
2022-08-12T09:50:55.653Z,34.46
2022-08-12T09:51:53.962Z,34.52
2022-08-12T09:52:56.608Z,34.50
2022-08-12T09:54:08.518Z,34.61
2022-08-12T09:54:59.875Z,34.89
2022-08-12T09:56:05.749Z,34.89
2022-08-12T09:57:03.164Z,34.88
2022-08-12T09:58:45.968Z,34.88
2022-08-12T09:58:59.635Z,34.88
2022-08-12T10:00:17.786Z,34.85
2022-08-12T10:00:54.179Z,34.89
2022-08-12T10:02:45.267Z,34.91
2022-08-12T10:02:54.593Z,35.03
2022-08-12T10:04:02.987Z,35.15
2022-08-12T10:04:54.140Z,35.19
2022-08-12T10:06:20.462Z,35.25
2022-08-12T10:06:57.820Z,35.31
2022-08-12T10:07:54.083Z,35.19
2022-08-12T10:08:54.089Z,35.23
2022-08-12T10:09:57.387Z,35.26
2022-08-12T10:10:54.106Z,35.41
2022-08-12T10:12:10.504Z,35.50
2022-08-12T10:13:10.284Z,35.58
2022-08-12T10:13:54.136Z,35.81
2022-08-12T10:14:54.568Z,35.74
2022-08-12T10:16:02.801Z,35.81
2022-08-12T10:16:54.154Z,35.87
2022-08-12T10:18:05.890Z,36.00
2022-08-12T10:18:54.174Z,36.00
2022-08-12T10:19:54.184Z,36.01
2022-08-12T10:20:54.187Z,36.05
2022-08-12T10:21:56.866Z,35.96
2022-08-12T10:22:54.682Z,35.94
2022-08-12T10:23:55.180Z,35.84
2022-08-12T10:24:54.219Z,35.89
2022-08-12T10:26:38.001Z,35.75
2022-08-12T10:26:54.241Z,35.92
2022-08-12T10:28:03.995Z,35.94
2022-08-12T10:29:01.991Z,36.20
2022-08-12T10:30:38.700Z,36.44
2022-08-12T10:30:58.957Z,36.46
2022-08-12T10:32:20.535Z,36.66
2022-08-12T10:32:56.894Z,36.65
2022-08-12T10:34:06.258Z,36.83
2022-08-12T10:34:57.135Z,36.78
2022-08-12T10:35:54.322Z,36.66
2022-08-12T10:36:54.323Z,36.84
2022-08-12T10:38:35.029Z,37.24
2022-08-12T10:38:54.337Z,37.55
2022-08-12T10:40:05.787Z,38.04
2022-08-12T10:40:54.404Z,38.41
2022-08-12T10:41:56.914Z,38.84
2022-08-12T10:42:54.374Z,39.25
2022-08-12T10:43:56.923Z,39.38
2022-08-12T10:44:54.392Z,39.59
2022-08-12T10:45:58.273Z,39.89
2022-08-12T10:46:54.413Z,39.97
2022-08-12T10:48:15.920Z,40.19
2022-08-12T10:48:58.361Z,40.23
2022-08-12T10:50:02.959Z,40.41
2022-08-12T10:51:00.997Z,40.65
2022-08-12T10:52:33.164Z,40.94
2022-08-12T10:52:54.466Z,41.25
2022-08-12T10:54:00.463Z,41.21
2022-08-12T10:54:54.486Z,41.16
2022-08-12T10:55:55.743Z,41.18
2022-08-12T10:56:54.505Z,41.20
2022-08-12T10:58:15.702Z,41.25
2022-08-12T10:58:54.520Z,40.82
2022-08-12T11:00:32.077Z,40.51
2022-08-12T11:01:26.041Z,40.76
2022-08-12T11:04:19.498Z,40.89
2022-08-12T11:04:24.442Z,40.72
2022-08-12T11:04:31.476Z,41.01
2022-08-12T11:04:55.237Z,40.98
2022-08-12T11:07:05.911Z,41.18
2022-08-12T11:07:07.995Z,41.10
2022-08-12T11:08:37.340Z,40.99
2022-08-12T11:08:54.724Z,40.45
2022-08-12T11:10:00.997Z,40.01
2022-08-12T11:10:54.636Z,39.60
2022-08-12T11:12:36.097Z,39.84
2022-08-12T11:12:59.499Z,40.34
2022-08-12T11:13:54.664Z,40.67
2022-08-12T11:14:54.743Z,41.20
2022-08-12T11:16:19.771Z,41.13
2022-08-12T11:17:34.675Z,40.60
2022-08-12T11:17:55.014Z,40.08
2022-08-12T11:18:57.068Z,39.62
2022-08-12T11:19:54.726Z,39.10
2022-08-12T11:20:58.073Z,38.87
2022-08-12T11:21:57.892Z,39.30
2022-08-12T11:22:57.721Z,39.66
2022-08-12T11:23:54.759Z,40.00
2022-08-12T11:24:55.428Z,40.51
2022-08-12T11:25:57.609Z,40.91
2022-08-12T11:26:54.790Z,41.18
2022-08-12T11:27:54.809Z,41.49
2022-08-12T11:28:59.219Z,41.69
2022-08-12T11:30:01.923Z,41.91
2022-08-12T11:30:54.940Z,42.16
2022-08-12T11:31:55.972Z,42.28
2022-08-12T11:32:54.857Z,42.39
2022-08-12T11:34:04.875Z,42.61
2022-08-12T11:34:55.379Z,42.78
2022-08-12T11:35:59.635Z,42.81
2022-08-12T11:36:54.872Z,42.55
2022-08-12T11:37:58.327Z,42.16
2022-08-12T11:38:54.897Z,42.28
2022-08-12T11:40:54.924Z,42.35
2022-08-12T11:41:54.944Z,42.23
2022-08-12T11:42:57.946Z,42.09
2022-08-12T11:43:58.301Z,41.90
2022-08-12T11:44:54.979Z,41.87
2022-08-12T11:45:56.701Z,42.04
2022-08-12T11:46:55.004Z,41.94
2022-08-12T11:47:55.577Z,41.98
2022-08-12T11:48:55.045Z,42.01
2022-08-12T11:49:55.047Z,41.99
2022-08-12T11:50:55.070Z,42.12
2022-08-12T11:51:57.531Z,42.18
2022-08-12T11:52:57.127Z,42.24
2022-08-12T11:53:58.045Z,42.35
2022-08-12T11:54:55.125Z,42.40
2022-08-12T11:55:55.143Z,42.52
2022-08-12T11:57:00.176Z,42.66
2022-08-12T11:58:34.069Z,42.66
2022-08-12T12:02:02.878Z,42.84
2022-08-12T12:02:55.298Z,42.77
2022-08-12T12:03:55.269Z,42.80
2022-08-12T12:04:55.280Z,42.80
2022-08-12T12:05:55.303Z,42.80
2022-08-12T12:06:55.321Z,42.91
2022-08-12T12:08:37.590Z,42.92
2022-08-12T12:08:55.349Z,42.96
2022-08-12T12:09:55.696Z,42.77
2022-08-12T12:10:55.388Z,42.81
2022-08-12T12:11:55.403Z,42.80
2022-08-12T12:12:55.416Z,42.86
2022-08-12T12:14:07.733Z,42.71
2022-08-12T12:14:56.021Z,42.70
2022-08-12T12:15:55.468Z,42.65
2022-08-12T12:16:55.488Z,42.66
2022-08-12T12:17:56.062Z,42.70
2022-08-12T12:18:55.524Z,42.65
2022-08-12T12:19:55.539Z,42.77
2022-08-12T12:20:55.554Z,42.74
2022-08-12T12:21:55.575Z,42.80
2022-08-12T12:22:55.597Z,42.64
2022-08-12T12:23:55.616Z,42.18
2022-08-12T12:24:55.631Z,41.76
2022-08-12T12:26:06.400Z,41.52
2022-08-12T12:27:01.000Z,41.08
2022-08-12T12:28:05.580Z,40.88
2022-08-12T12:28:55.713Z,40.80
2022-08-12T12:30:19.161Z,40.73
2022-08-12T12:30:55.742Z,40.84
2022-08-12T12:32:10.222Z,40.89
2022-08-12T12:32:55.778Z,41.01
2022-08-12T12:33:57.783Z,41.04
2022-08-12T12:35:14.619Z,40.89
2022-08-12T12:36:18.269Z,40.72
2022-08-12T12:36:55.847Z,40.50
2022-08-12T12:38:03.590Z,40.46
2022-08-12T12:38:55.887Z,40.34
2022-08-12T12:39:55.918Z,40.13
2022-08-12T12:40:55.923Z,40.25
2022-08-12T12:42:42.724Z,40.04
2022-08-12T12:43:01.906Z,39.98
2022-08-12T12:43:56.511Z,39.78
2022-08-12T12:44:55.997Z,39.73
2022-08-12T12:45:56.008Z,39.70
2022-08-12T12:46:56.033Z,39.66
2022-08-12T12:47:56.036Z,39.52
2022-08-12T12:48:56.053Z,39.45
2022-08-12T12:49:56.073Z,39.30
2022-08-12T12:50:56.089Z,38.91
2022-08-12T12:52:18.356Z,38.69
2022-08-12T12:52:56.118Z,38.52
2022-08-12T12:54:08.257Z,38.16
2022-08-12T12:54:56.148Z,38.04
2022-08-12T12:55:56.161Z,37.84
2022-08-12T12:56:56.179Z,37.72
2022-08-12T12:57:59.953Z,37.64
2022-08-12T12:58:56.210Z,37.56